This is the latest recevied weather packets stored in our database for station/object LU5HOA-13. If no packets are shown the sender has not sent any weather packets the latest 10 day(s).
| Time | Temp. | Humidity | Pressure | Rain* | Wind** | Luminosity | Snow |
|---|---|---|---|---|---|---|---|
| 1787665187 | 12.78° C | 66% | - | 0 mm | - | - | - |
| 1787664584 | 12.22° C | 69% | - | 0 mm | - | - | - |
| 1787663976 | 11.67° C | 73% | - | 0 mm | - | - | - |
| 1787663375 | 11.67° C | 73% | - | 0 mm | - | - | - |
| 1787662773 | 11.11° C | 77% | - | 0 mm | - | - | - |
| 1787662171 | 10.56° C | 81% | - | 0 mm | - | - | - |
| 1787661568 | 10.56° C | 81% | - | 0 mm | - | - | - |
| 1787660966 | 9.44° C | 86% | - | 0 mm | - | - | - |
| 1787660366 | 8.89° C | 89% | - | 0 mm | - | - | - |
| 1787659763 | 8.89° C | 89% | - | 0 mm | - | - | - |
| 1787659160 | 8.33° C | 91% | - | 0 mm | - | - | - |
| 1787658556 | 7.78° C | 93% | - | 0 mm | - | - | - |
| 1787657955 | 7.78° C | 93% | - | 0 mm | - | - | - |
| 1787657355 | 7.78° C | 95% | - | 0 mm | - | - | - |
| 1787656750 | 7.22° C | 96% | - | 0 mm | - | - | - |
| 1787656149 | 7.22° C | 96% | - | 0 mm | - | - | - |
| 1787655545 | 7.22° C | 96% | - | 0 mm | - | - | - |
| 1787654945 | 6.67° C | 96% | - | 0 mm | - | - | - |
| 1787654343 | 6.67° C | 96% | - | 0 mm | - | - | - |
| 1787653741 | 6.67° C | 96% | - | 0 mm | - | - | - |
| 1787653137 | 6.67° C | 95% | - | 0 mm | - | - | - |
| 1787652536 | 6.67° C | 95% | - | 0 mm | - | - | - |
| 1787651933 | 6.67° C | 95% | - | 0 mm | - | - | - |
| 1787651332 | 7.22° C | 95% | - | 0 mm | - | - | - |
| 1787650730 | 7.22° C | 95% | - | 0 mm | - | - | - |
* Rain latest hour (hover to see other rain measurements)
** Current wind speed in m/s (hover to see current wind gust speed)